createdAt,value
2022-10-05T00:00:26.198Z,98.31
2022-10-05T00:01:34.617Z,98.51
2022-10-05T00:02:37.820Z,98.25
2022-10-05T00:03:39.660Z,98.14
2022-10-05T00:04:41.434Z,98.11
2022-10-05T00:05:45.155Z,98.02
2022-10-05T00:06:59.848Z,98.05
2022-10-05T00:08:11.334Z,98.36
2022-10-05T00:09:17.347Z,98.64
2022-10-05T00:10:20.070Z,99.28
2022-10-05T00:11:22.222Z,99.50
2022-10-05T00:12:26.236Z,99.76
2022-10-05T00:13:30.495Z,100.00
2022-10-05T00:14:35.100Z,100.00
2022-10-05T00:15:36.989Z,100.00
2022-10-05T00:16:39.164Z,100.00
2022-10-05T00:17:43.039Z,100.00
2022-10-05T00:18:50.773Z,100.00
2022-10-05T00:19:53.562Z,100.00
2022-10-05T00:20:56.311Z,100.00
2022-10-05T00:22:00.782Z,100.00
2022-10-05T00:23:05.943Z,100.00
2022-10-05T00:24:10.186Z,100.00
2022-10-05T00:25:18.074Z,100.00
2022-10-05T00:26:25.550Z,100.00
2022-10-05T00:27:33.599Z,100.00
2022-10-05T00:28:35.493Z,100.00
2022-10-05T00:29:37.516Z,100.00
2022-10-05T00:30:40.079Z,100.00
2022-10-05T00:31:43.798Z,100.00
2022-10-05T00:32:46.445Z,100.00
2022-10-05T00:33:49.363Z,100.00
2022-10-05T00:34:51.840Z,100.00
2022-10-05T00:35:54.914Z,100.00
2022-10-05T00:36:58.006Z,100.00
2022-10-05T00:38:00.046Z,100.00
2022-10-05T00:39:02.856Z,100.00
2022-10-05T00:40:08.729Z,100.00
2022-10-05T00:41:48.128Z,100.00
2022-10-05T00:43:18.256Z,100.00
2022-10-05T00:44:48.415Z,100.00
2022-10-05T00:45:56.895Z,100.00
2022-10-05T00:47:10.061Z,100.00
2022-10-05T00:48:21.618Z,100.00
2022-10-05T00:50:02.499Z,100.00
2022-10-05T00:51:11.685Z,100.00
2022-10-05T00:52:33.933Z,100.00
2022-10-05T00:53:48.695Z,100.00
2022-10-05T00:55:09.018Z,100.00
2022-10-05T00:56:17.356Z,100.00
2022-10-05T00:57:45.719Z,100.00
2022-10-05T00:59:09.866Z,100.00
2022-10-05T01:00:19.292Z,100.00
2022-10-05T01:01:51.623Z,100.00
2022-10-05T01:03:06.803Z,100.00
2022-10-05T01:04:30.199Z,100.00
2022-10-05T01:05:41.698Z,100.00
2022-10-05T01:07:09.958Z,100.00
2022-10-05T01:08:28.630Z,100.00
2022-10-05T01:09:40.283Z,100.00
2022-10-05T01:10:48.820Z,100.00
2022-10-05T01:12:25.045Z,100.00
2022-10-05T01:13:39.610Z,100.00
2022-10-05T01:14:47.892Z,100.00
2022-10-05T01:16:10.390Z,100.00
2022-10-05T01:17:28.006Z,100.00
2022-10-05T01:19:02.696Z,100.00
2022-10-05T01:20:17.689Z,100.00
2022-10-05T01:21:25.635Z,100.00
2022-10-05T01:23:01.525Z,100.00
2022-10-05T01:24:21.614Z,100.00
2022-10-05T01:25:32.895Z,100.00
2022-10-05T01:26:56.415Z,100.00
2022-10-05T01:28:07.968Z,100.00
2022-10-05T01:29:16.685Z,100.00
2022-10-05T01:30:21.008Z,100.00
2022-10-05T01:31:29.795Z,100.00
2022-10-05T01:32:44.564Z,100.00
2022-10-05T01:33:50.568Z,100.00
2022-10-05T01:35:21.523Z,100.00
2022-10-05T01:36:30.109Z,100.00
2022-10-05T01:37:50.424Z,100.00
2022-10-05T01:38:56.492Z,100.00
2022-10-05T01:40:08.247Z,100.00
2022-10-05T01:41:19.942Z,100.00
2022-10-05T01:42:54.957Z,100.00
2022-10-05T01:44:12.590Z,100.00
2022-10-05T01:45:21.075Z,100.00
2022-10-05T01:46:26.680Z,100.00
2022-10-05T01:47:44.691Z,100.00
2022-10-05T01:49:10.333Z,100.00
2022-10-05T01:50:28.587Z,100.00
2022-10-05T01:51:44.885Z,100.00
2022-10-05T01:52:50.465Z,100.00
2022-10-05T01:54:05.325Z,100.00
2022-10-05T01:55:20.230Z,100.00
2022-10-05T01:56:26.094Z,100.00
2022-10-05T01:57:52.586Z,100.00
2022-10-05T01:59:27.316Z,100.00
2022-10-05T02:00:34.224Z,100.00
2022-10-05T02:03:09.448Z,99.95
2022-10-05T02:04:29.583Z,99.60
2022-10-05T02:05:42.479Z,99.45
2022-10-05T02:06:49.158Z,99.52
2022-10-05T02:07:55.345Z,99.54
2022-10-05T02:09:09.865Z,99.66
2022-10-05T02:10:21.877Z,99.67
2022-10-05T02:11:23.960Z,99.59
2022-10-05T02:12:29.579Z,99.59
2022-10-05T02:13:52.231Z,99.58
2022-10-05T02:14:57.929Z,99.26
2022-10-05T02:16:20.040Z,99.17
2022-10-05T02:17:25.665Z,99.22
2022-10-05T02:18:31.287Z,98.90
2022-10-05T02:19:38.649Z,99.00
2022-10-05T02:20:43.710Z,99.14
2022-10-05T02:21:52.426Z,99.20
2022-10-05T02:23:01.415Z,99.13
2022-10-05T02:24:07.022Z,99.12
2022-10-05T02:26:48.306Z,98.81
2022-10-05T02:28:14.696Z,98.93
2022-10-05T02:29:20.744Z,98.99
2022-10-05T02:30:23.825Z,98.96
2022-10-05T02:31:30.576Z,98.89
2022-10-05T02:32:49.682Z,98.58
2022-10-05T02:33:51.432Z,98.50
2022-10-05T02:34:58.382Z,98.58
2022-10-05T02:37:39.568Z,98.68
2022-10-05T02:38:48.331Z,98.65
2022-10-05T02:40:10.269Z,98.72
2022-10-05T02:41:49.909Z,98.13
2022-10-05T02:42:58.772Z,97.91
2022-10-05T02:44:20.747Z,97.42
2022-10-05T02:45:29.384Z,97.41
2022-10-05T02:46:37.979Z,97.58
2022-10-05T02:47:49.513Z,97.51
2022-10-05T02:49:13.624Z,97.64
2022-10-05T02:50:35.630Z,97.66
2022-10-05T02:51:47.037Z,97.47
2022-10-05T02:53:04.485Z,97.31
2022-10-05T02:54:21.986Z,97.55
2022-10-05T02:55:44.983Z,97.68
2022-10-05T02:56:50.666Z,97.32
2022-10-05T02:58:14.587Z,97.15
2022-10-05T03:00:33.726Z,96.99
2022-10-05T03:01:49.394Z,96.98
2022-10-05T03:03:04.551Z,97.09
2022-10-05T03:04:16.187Z,97.04
2022-10-05T03:05:31.331Z,96.93
2022-10-05T03:06:37.248Z,96.91
2022-10-05T03:07:51.816Z,96.75
2022-10-05T03:09:03.729Z,96.53
2022-10-05T03:10:09.867Z,96.09
2022-10-05T03:11:21.077Z,96.36
2022-10-05T03:12:51.010Z,96.48
2022-10-05T03:14:10.142Z,96.85
2022-10-05T03:15:24.663Z,97.14
2022-10-05T03:16:42.656Z,97.33
2022-10-05T03:17:51.130Z,97.35
2022-10-05T03:18:57.020Z,97.60
2022-10-05T03:20:22.582Z,97.37
2022-10-05T03:21:54.994Z,97.48
2022-10-05T03:23:00.494Z,97.22
2022-10-05T03:24:21.380Z,96.89
2022-10-05T03:27:24.737Z,97.08
2022-10-05T03:28:55.401Z,97.05
2022-10-05T03:30:04.028Z,97.26
2022-10-05T03:31:25.183Z,97.12
2022-10-05T03:32:31.921Z,97.21
2022-10-05T03:33:41.541Z,97.26
2022-10-05T03:35:13.526Z,97.08
2022-10-05T03:36:31.536Z,97.15
2022-10-05T03:37:44.371Z,97.15
2022-10-05T03:39:01.888Z,96.91
2022-10-05T03:40:27.693Z,97.05
2022-10-05T03:41:36.343Z,96.98
2022-10-05T03:42:44.924Z,97.17
2022-10-05T03:44:13.300Z,97.30
2022-10-05T03:45:25.086Z,97.45
2022-10-05T03:46:40.522Z,97.45
2022-10-05T03:47:49.066Z,97.58
2022-10-05T03:50:22.920Z,97.53
2022-10-05T03:51:35.323Z,97.47
2022-10-05T03:52:41.034Z,97.43
2022-10-05T03:53:49.468Z,97.26
2022-10-05T03:55:08.218Z,97.29
2022-10-05T03:56:23.493Z,97.44
2022-10-05T03:57:35.704Z,97.30
2022-10-05T03:58:44.345Z,97.47
2022-10-05T03:59:56.371Z,97.61
2022-10-05T04:01:02.585Z,97.55
2022-10-05T04:02:08.819Z,97.57
2022-10-05T04:03:36.877Z,97.08
2022-10-05T04:04:48.603Z,97.15
2022-10-05T04:05:57.093Z,97.13
2022-10-05T04:07:00.642Z,96.73
2022-10-05T04:08:19.132Z,96.69
2022-10-05T04:09:31.198Z,96.65
2022-10-05T04:10:36.891Z,96.69
2022-10-05T04:11:48.002Z,96.58
2022-10-05T04:13:11.721Z,96.54
2022-10-05T04:15:43.117Z,96.51
2022-10-05T04:16:49.648Z,96.44
2022-10-05T04:17:55.566Z,96.66
2022-10-05T04:19:01.185Z,96.55
2022-10-05T04:20:28.515Z,96.71
2022-10-05T04:21:49.525Z,96.79
2022-10-05T04:23:16.969Z,96.78
2022-10-05T04:24:22.468Z,96.64
2022-10-05T04:25:40.648Z,96.83
2022-10-05T04:26:49.399Z,96.85
2022-10-05T04:28:01.703Z,96.95
2022-10-05T04:29:07.860Z,97.09
2022-10-05T04:30:18.692Z,96.77
2022-10-05T04:31:43.474Z,96.74
2022-10-05T04:32:49.265Z,96.67
2022-10-05T04:33:56.188Z,96.58
2022-10-05T04:35:25.220Z,96.50
2022-10-05T04:36:34.013Z,96.60
2022-10-05T04:37:51.185Z,96.39
2022-10-05T04:38:57.013Z,96.37
2022-10-05T04:40:15.719Z,96.12
2022-10-05T04:41:55.400Z,95.81
2022-10-05T04:43:18.405Z,95.44
2022-10-05T04:44:44.991Z,95.28
2022-10-05T04:45:53.873Z,94.96
2022-10-05T04:47:18.031Z,94.75
2022-10-05T04:48:32.719Z,94.70
2022-10-05T04:50:03.015Z,94.47
2022-10-05T04:51:09.609Z,94.55
2022-10-05T04:52:24.207Z,94.60
2022-10-05T04:53:32.803Z,94.70
2022-10-05T04:54:55.166Z,94.24
2022-10-05T04:56:06.688Z,94.31
2022-10-05T04:57:22.399Z,94.73
2022-10-05T04:58:58.751Z,94.71
2022-10-05T05:00:04.981Z,94.55
2022-10-05T05:01:25.998Z,94.53
2022-10-05T05:02:35.919Z,94.60
2022-10-05T05:03:44.629Z,94.45
2022-10-05T05:04:51.995Z,94.61
2022-10-05T05:06:28.647Z,94.59
2022-10-05T05:08:00.708Z,94.49
2022-10-05T05:09:06.411Z,94.59
2022-10-05T05:10:34.332Z,94.62
2022-10-05T05:12:05.823Z,94.61
2022-10-05T05:13:20.671Z,94.27
2022-10-05T05:14:32.411Z,94.45
2022-10-05T05:15:44.371Z,94.76
2022-10-05T05:16:59.660Z,94.64
2022-10-05T05:18:34.277Z,94.61
2022-10-05T05:20:04.397Z,94.47
2022-10-05T05:21:22.860Z,94.33
2022-10-05T05:22:50.485Z,94.57
2022-10-05T05:23:56.438Z,94.90
2022-10-05T05:25:07.838Z,94.58
2022-10-05T05:26:30.463Z,94.14
2022-10-05T05:28:00.668Z,94.09
2022-10-05T05:29:30.393Z,94.17
2022-10-05T05:30:51.947Z,94.55
2022-10-05T05:32:03.971Z,94.75
2022-10-05T05:33:21.896Z,94.70
2022-10-05T05:34:38.193Z,94.50
2022-10-05T05:36:01.899Z,94.63
2022-10-05T05:37:20.912Z,94.64
2022-10-05T05:38:27.490Z,94.58
2022-10-05T05:39:48.637Z,94.17
2022-10-05T05:40:57.586Z,94.27
2022-10-05T05:42:03.190Z,94.36
2022-10-05T05:43:13.285Z,93.57
2022-10-05T05:44:18.883Z,93.31
2022-10-05T05:45:44.546Z,93.34
2022-10-05T05:47:04.770Z,93.44
2022-10-05T05:48:29.809Z,93.26
2022-10-05T05:49:52.049Z,93.25
2022-10-05T05:51:02.033Z,93.48
2022-10-05T05:52:19.345Z,93.01
2022-10-05T05:53:30.971Z,92.77
2022-10-05T05:55:56.589Z,92.92
2022-10-05T05:57:14.178Z,93.07
2022-10-05T05:58:29.055Z,93.49
2022-10-05T05:59:44.613Z,93.37
2022-10-05T06:00:58.787Z,93.37
2022-10-05T06:02:08.141Z,93.26
2022-10-05T06:03:26.289Z,92.99
2022-10-05T06:04:35.103Z,92.69
2022-10-05T06:05:52.629Z,92.25
2022-10-05T06:06:57.640Z,92.16
2022-10-05T06:08:12.720Z,91.90
2022-10-05T06:09:24.794Z,91.33
2022-10-05T06:10:43.703Z,91.32
2022-10-05T06:12:02.041Z,90.61
2022-10-05T06:13:08.864Z,90.59
2022-10-05T06:14:20.595Z,89.67
2022-10-05T06:15:39.219Z,89.26
2022-10-05T06:16:52.506Z,89.55
2022-10-05T06:17:58.440Z,89.46
2022-10-05T06:19:06.953Z,89.90
2022-10-05T06:20:13.189Z,89.78
2022-10-05T06:21:23.104Z,88.90
2022-10-05T06:22:31.765Z,88.91
2022-10-05T06:23:40.524Z,88.67
2022-10-05T06:25:03.630Z,88.97
2022-10-05T06:26:34.337Z,88.91
2022-10-05T06:28:00.813Z,88.84
2022-10-05T06:29:09.783Z,88.17
2022-10-05T06:30:15.434Z,88.45
2022-10-05T06:31:49.926Z,88.50
2022-10-05T06:33:14.420Z,88.20
2022-10-05T06:34:48.173Z,87.16
2022-10-05T06:36:13.817Z,87.38
2022-10-05T06:37:25.325Z,86.98
2022-10-05T06:38:52.988Z,87.08
2022-10-05T06:40:11.356Z,86.72
2022-10-05T06:41:16.958Z,86.21
2022-10-05T06:42:41.846Z,85.29
2022-10-05T06:45:23.360Z,85.47
2022-10-05T06:46:45.933Z,83.02
2022-10-05T06:47:56.449Z,85.26
2022-10-05T06:49:12.938Z,85.79
2022-10-05T06:50:38.354Z,86.05
2022-10-05T06:52:04.054Z,86.62
2022-10-05T06:53:17.606Z,87.06
2022-10-05T06:54:33.089Z,87.47
2022-10-05T06:55:50.976Z,87.89
2022-10-05T06:57:15.585Z,88.09
2022-10-05T06:58:31.317Z,88.51
2022-10-05T06:59:53.856Z,88.65
2022-10-05T07:01:05.571Z,87.66
2022-10-05T07:02:21.011Z,87.73
2022-10-05T07:03:46.853Z,86.74
2022-10-05T07:05:10.887Z,86.47
2022-10-05T07:06:17.685Z,86.49
2022-10-05T07:07:30.356Z,86.84
2022-10-05T07:08:52.221Z,85.82
2022-10-05T07:10:07.103Z,85.76
2022-10-05T07:11:21.892Z,85.07
2022-10-05T07:12:56.166Z,84.87
2022-10-05T07:14:14.583Z,84.86
2022-10-05T07:15:33.432Z,84.07
2022-10-05T07:16:42.075Z,84.45
2022-10-05T07:17:51.326Z,84.58
2022-10-05T07:19:13.812Z,85.35
2022-10-05T07:20:26.003Z,85.07
2022-10-05T07:21:34.778Z,85.48
2022-10-05T07:22:49.591Z,85.07
2022-10-05T07:24:30.535Z,85.10
2022-10-05T07:25:42.750Z,85.25
2022-10-05T07:26:49.923Z,85.49
2022-10-05T07:28:14.754Z,85.36
2022-10-05T07:29:26.433Z,85.59
2022-10-05T07:30:31.962Z,85.54
2022-10-05T07:31:57.954Z,85.56
2022-10-05T07:33:15.256Z,84.89
2022-10-05T07:34:21.355Z,85.01
2022-10-05T07:35:33.907Z,84.30
2022-10-05T07:36:39.899Z,84.79
2022-10-05T07:37:45.422Z,85.06
2022-10-05T07:38:59.860Z,85.09
2022-10-05T07:40:06.049Z,84.78
2022-10-05T07:41:25.867Z,84.84
2022-10-05T07:42:57.823Z,88.82
2022-10-05T07:44:12.568Z,89.08
2022-10-05T07:47:12.300Z,81.57
2022-10-05T07:48:23.896Z,80.98
2022-10-05T07:49:49.620Z,86.59
2022-10-05T07:51:08.111Z,80.63
2022-10-05T07:52:22.928Z,78.44
2022-10-05T07:53:37.618Z,76.70
2022-10-05T07:55:03.325Z,77.38
2022-10-05T07:56:11.008Z,79.90
2022-10-05T07:57:50.131Z,74.62
2022-10-05T07:59:00.076Z,79.04
2022-10-05T08:00:08.686Z,76.61
2022-10-05T08:01:30.364Z,77.53
2022-10-05T08:02:44.027Z,76.95
2022-10-05T08:04:08.367Z,76.30
2022-10-05T08:05:22.861Z,79.58
2022-10-05T08:06:44.758Z,73.78
2022-10-05T08:07:50.567Z,76.07
2022-10-05T08:08:56.181Z,77.76
2022-10-05T08:10:27.673Z,78.35
2022-10-05T08:11:50.056Z,74.12
2022-10-05T08:13:27.861Z,77.37
2022-10-05T08:14:36.297Z,71.67
2022-10-05T08:15:43.932Z,74.04
2022-10-05T08:16:54.453Z,75.73
2022-10-05T08:18:03.137Z,72.75
2022-10-05T08:19:23.658Z,77.26
2022-10-05T08:20:45.902Z,70.99
2022-10-05T08:21:57.325Z,73.59
2022-10-05T08:23:02.891Z,74.47
2022-10-05T08:24:24.299Z,77.32
2022-10-05T08:25:32.939Z,75.95
2022-10-05T08:26:44.395Z,70.27
2022-10-05T08:27:58.493Z,70.07
2022-10-05T08:29:14.015Z,71.68
2022-10-05T08:30:16.786Z,76.88
2022-10-05T08:31:25.033Z,71.50
2022-10-05T08:32:56.502Z,71.73
2022-10-05T08:34:05.069Z,72.82
2022-10-05T08:35:16.650Z,69.52
2022-10-05T08:36:22.366Z,69.84
2022-10-05T08:37:30.887Z,72.94
2022-10-05T08:38:34.095Z,73.14
2022-10-05T08:39:42.896Z,71.36
2022-10-05T08:41:05.954Z,68.38
2022-10-05T08:42:32.630Z,71.03
2022-10-05T08:43:41.253Z,70.28
2022-10-05T08:45:16.147Z,69.87
2022-10-05T08:46:37.333Z,69.88
2022-10-05T08:47:58.506Z,69.51
2022-10-05T08:49:34.862Z,70.62
2022-10-05T08:50:50.142Z,71.31
2022-10-05T08:52:12.435Z,69.74
2022-10-05T08:53:33.289Z,71.79
2022-10-05T08:54:41.919Z,71.48
2022-10-05T08:55:52.979Z,68.57
2022-10-05T08:57:28.723Z,68.64
2022-10-05T08:58:57.606Z,68.30
2022-10-05T09:00:15.414Z,68.50
2022-10-05T09:02:54.900Z,70.04
2022-10-05T09:04:06.874Z,71.69
2022-10-05T09:05:30.807Z,70.69
2022-10-05T09:06:58.446Z,69.45
2022-10-05T09:08:40.148Z,73.87
2022-10-05T09:09:57.221Z,70.57
2022-10-05T09:11:18.355Z,69.89
2022-10-05T09:12:58.073Z,70.73
2022-10-05T09:14:22.653Z,70.80
2022-10-05T09:15:46.799Z,73.68
2022-10-05T09:17:26.265Z,73.62
2022-10-05T09:18:55.282Z,71.29
2022-10-05T09:20:09.723Z,73.38
2022-10-05T09:21:34.731Z,70.89
2022-10-05T09:22:46.773Z,73.05
2022-10-05T09:23:52.271Z,71.51
2022-10-05T09:25:09.552Z,73.90
2022-10-05T09:26:44.974Z,70.85
2022-10-05T09:27:58.602Z,70.47
2022-10-05T09:29:24.293Z,72.04
2022-10-05T09:30:48.387Z,73.05
2022-10-05T09:31:56.952Z,72.12
2022-10-05T09:33:19.291Z,72.61
2022-10-05T09:34:49.016Z,73.78
2022-10-05T09:36:14.711Z,70.90
2022-10-05T09:37:42.063Z,71.42
2022-10-05T09:38:59.677Z,70.93
2022-10-05T09:40:08.730Z,73.21
2022-10-05T09:41:34.087Z,78.04
2022-10-05T09:43:13.075Z,71.63
2022-10-05T09:44:36.768Z,71.16
2022-10-05T09:46:08.925Z,72.65
2022-10-05T09:47:39.812Z,75.67
2022-10-05T09:49:11.633Z,73.47
2022-10-05T09:50:41.331Z,76.93
2022-10-05T09:51:59.124Z,72.30
2022-10-05T09:53:30.729Z,75.67
2022-10-05T09:54:54.677Z,70.11
2022-10-05T09:56:12.791Z,73.38
2022-10-05T09:57:42.442Z,68.65
2022-10-05T09:59:04.841Z,73.19
2022-10-05T10:00:25.837Z,70.48
2022-10-05T10:01:50.959Z,70.78
2022-10-05T10:03:28.813Z,69.27
2022-10-05T10:05:01.953Z,69.17
2022-10-05T10:06:07.587Z,72.85
2022-10-05T10:07:16.456Z,70.09
2022-10-05T10:08:45.894Z,70.43
2022-10-05T10:10:25.823Z,70.32
2022-10-05T10:11:37.591Z,74.73
2022-10-05T10:12:51.005Z,71.14
2022-10-05T10:14:16.723Z,73.79
2022-10-05T10:15:28.236Z,73.69
2022-10-05T10:16:36.855Z,69.26
2022-10-05T10:18:05.089Z,68.71
2022-10-05T10:19:42.835Z,68.94
2022-10-05T10:21:11.390Z,68.85
2022-10-05T10:22:20.584Z,68.24
2022-10-05T10:23:42.004Z,67.20
2022-10-05T10:25:02.865Z,66.84
2022-10-05T10:26:30.966Z,67.55
2022-10-05T10:28:59.396Z,67.09
2022-10-05T10:30:27.549Z,66.42
2022-10-05T10:31:59.237Z,66.40
2022-10-05T10:33:21.640Z,65.48
2022-10-05T10:35:02.507Z,65.05
2022-10-05T10:36:09.177Z,67.70
2022-10-05T10:37:20.890Z,65.11
2022-10-05T10:38:43.480Z,65.30
2022-10-05T10:39:54.952Z,64.42
2022-10-05T10:41:19.207Z,63.58
2022-10-05T10:42:43.207Z,68.36
2022-10-05T10:44:23.332Z,63.39
2022-10-05T10:45:48.808Z,63.55
2022-10-05T10:47:06.342Z,64.14
2022-10-05T10:48:30.632Z,65.38
2022-10-05T10:50:02.185Z,65.46
2022-10-05T10:51:19.779Z,66.13
2022-10-05T10:52:31.144Z,66.58
2022-10-05T10:53:39.439Z,64.89
2022-10-05T10:54:48.075Z,65.33
2022-10-05T10:56:08.846Z,64.65
2022-10-05T10:57:24.610Z,64.48
2022-10-05T10:58:47.758Z,63.42
2022-10-05T11:00:21.116Z,64.63
2022-10-05T11:01:41.889Z,65.57
2022-10-05T11:03:09.026Z,64.33
2022-10-05T11:04:30.011Z,64.59
2022-10-05T11:05:45.002Z,64.37
2022-10-05T11:07:09.708Z,64.96
2022-10-05T11:08:39.550Z,65.57
2022-10-05T11:11:26.742Z,65.70
2022-10-05T11:12:41.818Z,65.21
2022-10-05T11:13:58.832Z,65.61
2022-10-05T11:15:27.132Z,65.77
2022-10-05T11:16:39.135Z,65.73
2022-10-05T11:17:48.205Z,66.52
2022-10-05T11:19:05.741Z,66.12
2022-10-05T11:22:09.294Z,63.79
2022-10-05T11:23:21.270Z,64.49
2022-10-05T11:24:42.234Z,63.71
2022-10-05T11:26:07.910Z,64.55
2022-10-05T11:27:25.743Z,64.62
2022-10-05T11:28:34.565Z,65.04
2022-10-05T11:29:57.187Z,65.10
2022-10-05T11:31:15.788Z,65.44
2022-10-05T11:32:21.410Z,64.10
2022-10-05T11:33:57.386Z,65.21
2022-10-05T11:35:25.671Z,65.24
2022-10-05T11:36:46.746Z,65.89
2022-10-05T11:37:58.838Z,66.10
2022-10-05T11:39:23.873Z,65.51
2022-10-05T11:41:01.623Z,66.00
2022-10-05T11:42:11.198Z,65.93
2022-10-05T11:43:33.194Z,66.14
2022-10-05T11:44:45.843Z,66.40
2022-10-05T11:45:54.282Z,66.74
2022-10-05T11:47:11.948Z,66.06
2022-10-05T11:48:52.625Z,66.33
2022-10-05T11:50:18.641Z,67.57
2022-10-05T11:51:37.469Z,66.88
2022-10-05T11:52:53.827Z,66.23
2022-10-05T11:54:16.703Z,66.51
2022-10-05T11:55:40.837Z,66.62
2022-10-05T11:58:07.345Z,66.97
2022-10-05T11:59:28.831Z,66.88
2022-10-05T12:00:50.329Z,69.77
2022-10-05T12:02:05.697Z,67.00
2022-10-05T12:03:28.912Z,68.93
2022-10-05T12:04:52.472Z,67.55
2022-10-05T12:06:01.319Z,70.42
2022-10-05T12:07:16.163Z,67.54
2022-10-05T12:08:30.931Z,67.36
2022-10-05T12:09:53.659Z,67.67
2022-10-05T12:11:05.735Z,68.33
2022-10-05T12:12:11.851Z,69.53
2022-10-05T12:13:32.409Z,68.30
2022-10-05T12:14:44.516Z,67.87
2022-10-05T12:15:59.120Z,69.11
2022-10-05T12:17:26.931Z,67.93
2022-10-05T12:18:35.444Z,68.75
2022-10-05T12:19:41.348Z,69.81
2022-10-05T12:20:53.047Z,69.88
2022-10-05T12:22:04.791Z,70.68
2022-10-05T12:23:21.957Z,68.16
2022-10-05T12:24:36.707Z,68.67
2022-10-05T12:25:54.006Z,69.17
2022-10-05T12:27:18.791Z,70.26
2022-10-05T12:28:24.318Z,68.66
2022-10-05T12:29:39.076Z,68.92
2022-10-05T12:30:57.554Z,68.42
2022-10-05T12:32:21.417Z,68.60
2022-10-05T12:33:35.823Z,69.55
2022-10-05T12:34:45.446Z,69.66
2022-10-05T12:37:55.279Z,69.50
2022-10-05T12:39:03.751Z,69.52
2022-10-05T12:40:24.626Z,70.00
2022-10-05T12:41:43.562Z,69.55
2022-10-05T12:43:07.299Z,69.71
2022-10-05T12:44:25.026Z,69.39
2022-10-05T12:45:54.696Z,69.34
2022-10-05T12:47:05.923Z,69.67
2022-10-05T12:48:11.644Z,68.97
2022-10-05T12:49:49.079Z,69.06
2022-10-05T12:51:17.053Z,67.91
2022-10-05T12:52:56.005Z,68.48
2022-10-05T12:54:09.208Z,69.33
2022-10-05T12:55:36.631Z,69.01
2022-10-05T12:56:53.677Z,69.33
2022-10-05T12:59:56.768Z,69.73
2022-10-05T13:01:03.476Z,69.61
2022-10-05T13:02:13.169Z,69.66
2022-10-05T13:03:27.836Z,70.10
2022-10-05T13:05:00.474Z,69.43
2022-10-05T13:06:24.972Z,68.20
2022-10-05T13:07:37.662Z,68.61
2022-10-05T13:08:58.905Z,68.35
2022-10-05T13:10:13.917Z,69.00
2022-10-05T13:11:33.030Z,69.10
2022-10-05T13:13:02.761Z,68.78
2022-10-05T13:14:14.989Z,74.74
2022-10-05T13:15:32.833Z,72.85
2022-10-05T13:16:59.943Z,69.63
2022-10-05T13:18:27.260Z,68.24
2022-10-05T13:19:36.079Z,76.69
2022-10-05T13:20:54.302Z,68.71
2022-10-05T13:22:05.950Z,75.46
2022-10-05T13:23:14.342Z,70.36
2022-10-05T13:24:39.475Z,68.52
2022-10-05T13:25:54.459Z,70.64
2022-10-05T13:27:06.538Z,73.14
2022-10-05T13:28:18.003Z,74.16
2022-10-05T13:29:39.513Z,71.92
2022-10-05T13:30:48.044Z,73.50
2022-10-05T13:32:13.070Z,70.09
2022-10-05T13:34:35.588Z,68.42
2022-10-05T13:35:44.091Z,73.03
2022-10-05T13:36:57.003Z,69.70
2022-10-05T13:38:23.038Z,69.68
2022-10-05T13:39:34.841Z,72.04
2022-10-05T13:41:04.894Z,74.85
2022-10-05T13:42:16.664Z,73.82
2022-10-05T13:43:28.263Z,73.05
2022-10-05T13:44:39.709Z,69.46
2022-10-05T13:45:57.647Z,72.66
2022-10-05T13:47:09.459Z,73.00
2022-10-05T13:48:21.127Z,72.24
2022-10-05T13:49:26.131Z,72.67
2022-10-05T13:50:33.617Z,71.35
2022-10-05T13:51:42.682Z,71.38
2022-10-05T13:52:51.867Z,74.53
2022-10-05T13:54:14.315Z,72.08
2022-10-05T13:55:49.388Z,72.02
2022-10-05T13:56:55.475Z,72.21
2022-10-05T13:58:03.877Z,70.85
2022-10-05T13:59:21.939Z,72.81
2022-10-05T14:00:27.112Z,67.40
2022-10-05T14:01:45.494Z,67.89
2022-10-05T14:02:54.277Z,72.47
2022-10-05T14:04:20.679Z,66.83
2022-10-05T14:05:28.808Z,67.63
2022-10-05T14:06:34.640Z,68.84
2022-10-05T14:07:49.117Z,67.61
2022-10-05T14:08:53.440Z,68.46
2022-10-05T14:09:58.467Z,68.85
2022-10-05T14:11:09.936Z,68.95
2022-10-05T14:12:15.261Z,69.05
2022-10-05T14:13:36.090Z,69.54
2022-10-05T14:14:47.732Z,69.97
2022-10-05T14:16:02.360Z,70.50
2022-10-05T14:17:08.988Z,70.20
2022-10-05T14:18:25.724Z,69.84
2022-10-05T14:19:31.213Z,69.57
2022-10-05T14:20:33.329Z,70.10
2022-10-05T14:22:04.213Z,69.96
2022-10-05T14:23:22.269Z,69.62
2022-10-05T14:24:45.872Z,70.55
2022-10-05T14:25:38.296Z,73.38
2022-10-05T14:26:42.585Z,75.76
2022-10-05T14:28:00.816Z,73.67
2022-10-05T14:29:20.229Z,71.56
2022-10-05T14:30:25.454Z,73.68
2022-10-05T14:31:36.970Z,71.61
2022-10-05T14:33:07.118Z,68.27
2022-10-05T14:34:29.433Z,71.90
2022-10-05T14:35:50.229Z,72.96
2022-10-05T14:37:02.138Z,71.80
2022-10-05T14:38:26.198Z,68.92
2022-10-05T14:39:31.673Z,72.11
2022-10-05T14:40:38.509Z,70.82
2022-10-05T14:41:49.049Z,70.90
2022-10-05T14:42:52.414Z,68.83
2022-10-05T14:44:10.595Z,67.45
2022-10-05T14:45:15.881Z,68.00
2022-10-05T14:46:25.111Z,71.89
2022-10-05T14:47:28.733Z,70.28
2022-10-05T14:48:42.386Z,69.78
2022-10-05T14:49:53.860Z,69.87
2022-10-05T14:50:58.888Z,69.97
2022-10-05T14:52:22.590Z,70.62
2022-10-05T14:53:28.474Z,70.59
2022-10-05T14:54:43.193Z,70.85
2022-10-05T14:56:08.195Z,71.05
2022-10-05T14:57:39.244Z,71.11
2022-10-05T14:58:58.721Z,71.01
2022-10-05T15:00:13.960Z,70.53
2022-10-05T15:01:19.598Z,71.10
2022-10-05T15:02:31.387Z,71.62
2022-10-05T15:03:49.317Z,71.94
2022-10-05T15:05:03.436Z,71.73
2022-10-05T15:06:09.254Z,72.14
2022-10-05T15:07:14.886Z,72.24
2022-10-05T15:08:37.045Z,71.45
2022-10-05T15:09:49.108Z,71.86
2022-10-05T15:11:11.650Z,71.58
2022-10-05T15:12:27.479Z,71.59
2022-10-05T15:13:35.748Z,71.49
2022-10-05T15:14:42.344Z,71.89
2022-10-05T15:16:01.173Z,72.18
2022-10-05T15:17:13.453Z,71.87
2022-10-05T15:18:32.315Z,71.43
2022-10-05T15:19:39.186Z,71.77
2022-10-05T15:20:56.897Z,71.68
2022-10-05T15:22:19.328Z,71.40
2022-10-05T15:23:33.666Z,71.63
2022-10-05T15:26:12.979Z,72.16
2022-10-05T15:27:25.711Z,71.62
2022-10-05T15:28:49.963Z,72.04
2022-10-05T15:30:01.719Z,71.86
2022-10-05T15:31:07.114Z,72.06
2022-10-05T15:32:24.834Z,71.72
2022-10-05T15:33:39.369Z,72.07
2022-10-05T15:34:47.951Z,71.61
2022-10-05T15:37:13.023Z,72.57
2022-10-05T15:38:25.602Z,72.70
2022-10-05T15:39:46.977Z,72.67
2022-10-05T15:40:53.414Z,72.84
2022-10-05T15:42:16.589Z,72.54
2022-10-05T15:43:22.992Z,72.56
2022-10-05T15:44:37.710Z,72.34
2022-10-05T15:45:49.308Z,72.92
2022-10-05T15:46:54.847Z,72.68
2022-10-05T15:48:06.780Z,72.58
2022-10-05T15:49:24.961Z,72.70
2022-10-05T15:52:11.943Z,73.18
2022-10-05T15:53:26.521Z,73.20
2022-10-05T15:54:47.064Z,73.10
2022-10-05T15:55:56.183Z,73.21
2022-10-05T15:57:16.943Z,73.04
2022-10-05T15:58:45.760Z,72.95
2022-10-05T15:59:51.252Z,72.93
2022-10-05T16:00:56.946Z,72.97
2022-10-05T16:02:02.402Z,73.23
2022-10-05T16:03:31.452Z,73.14
2022-10-05T16:04:46.171Z,73.32
2022-10-05T16:05:59.717Z,73.84
2022-10-05T16:07:02.487Z,73.95
2022-10-05T16:08:05.917Z,73.84
2022-10-05T16:09:11.423Z,74.15
2022-10-05T16:10:20.780Z,74.17
2022-10-05T16:12:01.821Z,74.02
2022-10-05T16:13:19.486Z,73.97
2022-10-05T16:14:36.921Z,74.06
2022-10-05T16:15:51.468Z,74.11
2022-10-05T16:17:09.236Z,74.24
2022-10-05T16:18:22.162Z,74.23
2022-10-05T16:19:34.313Z,74.29
2022-10-05T16:20:49.504Z,74.39
2022-10-05T16:21:57.909Z,74.51
2022-10-05T16:23:33.785Z,74.64
2022-10-05T16:24:59.221Z,74.45
2022-10-05T16:26:32.479Z,74.86
2022-10-05T16:28:13.168Z,74.84
2022-10-05T16:29:25.252Z,74.83
2022-10-05T16:30:30.744Z,75.03
2022-10-05T16:32:04.098Z,75.19
2022-10-05T16:33:16.522Z,74.96
2022-10-05T16:34:34.570Z,74.86
2022-10-05T16:35:52.351Z,75.02
2022-10-05T16:38:36.190Z,75.15
2022-10-05T16:40:05.489Z,75.17
2022-10-05T16:41:33.073Z,75.39
2022-10-05T16:43:01.043Z,75.36
2022-10-05T16:44:29.712Z,75.12
2022-10-05T16:45:48.467Z,75.15
2022-10-05T16:46:54.579Z,75.31
2022-10-05T16:48:16.541Z,75.32
2022-10-05T16:49:46.578Z,75.28
2022-10-05T16:50:52.659Z,75.15